Time;durP1;ratioP1;P1;durP2;ratioP2;P2;SDS_P1;SDS_P2;PMS_P1;PMS_P2;Temp;Humidity;BMP_temperature;BMP_pressure;BME280_temperature;BME280_humidity;BME280_pressure;Samples;Min_cycle;Max_cycle;Signal;HPM_P1;HPM_P2
2022/03/16 00:01:39;;;;;;;;;;;12.10;99.90;;;;;;5010903;28;20008;-80
2022/03/16 00:04:04;;;;;;;;;;;12.10;99.90;;;;;;5016008;28;19958;-81
2022/03/16 00:06:30;;;;;;;;;;;12.10;99.90;;;;;;5015287;28;19956;-80
2022/03/16 00:08:55;;;;;;;;;;;12.00;99.90;;;;;;5015766;28;19909;-80
2022/03/16 00:11:21;;;;;;;;;;;12.00;99.90;;;;;;5016022;28;19917;-80
2022/03/16 00:13:46;;;;;;;;;;;12.00;99.90;;;;;;5015921;28;19976;-80
2022/03/16 00:16:12;;;;;;;;;;;12.00;99.90;;;;;;5016276;28;19916;-80
2022/03/16 00:18:38;;;;;;;;;;;12.00;99.90;;;;;;5015436;28;19945;-81
2022/03/16 00:21:03;;;;;;;;;;;12.00;99.90;;;;;;5015615;28;19952;-80
2022/03/16 00:23:29;;;;;;;;;;;12.00;99.90;;;;;;5016103;28;19972;-81
2022/03/16 00:25:54;;;;;;;;;;;11.90;99.90;;;;;;5015577;28;19941;-80
2022/03/16 00:28:20;;;;;;;;;;;12.00;99.90;;;;;;5015452;28;20392;-80
2022/03/16 00:30:45;;;;;;;;;;;11.90;99.90;;;;;;5015265;28;19910;-81
2022/03/16 00:33:11;;;;;;;;;;;12.00;99.90;;;;;;5015531;28;19933;-81
2022/03/16 00:35:37;;;;;;;;;;;12.00;99.90;;;;;;5014069;28;19917;-80
2022/03/16 00:38:02;;;;;;;;;;;12.00;99.90;;;;;;5015551;28;19910;-80
2022/03/16 00:40:29;;;;;;;;;;;12.00;99.90;;;;;;5015619;28;19952;-80
2022/03/16 00:42:54;;;;;;;;;;;12.00;99.90;;;;;;5014846;28;20396;-81
2022/03/16 00:45:20;;;;;;;;;;;11.90;99.90;;;;;;5015194;28;19909;-80
2022/03/16 00:47:45;;;;;;;;;;;11.90;99.90;;;;;;5014147;28;19917;-80
2022/03/16 00:50:11;;;;;;;;;;;12.00;99.90;;;;;;5015537;28;19936;-81
2022/03/16 00:52:36;;;;;;;;;;;12.00;99.90;;;;;;5015010;28;19953;-80
2022/03/16 00:55:03;;;;;;;;;;;11.90;99.90;;;;;;5011461;28;19909;-80
2022/03/16 00:57:28;;;;;;;;;;;12.00;99.90;;;;;;5005727;28;19913;-80
2022/03/16 00:59:54;;;;;;;;;;;11.90;99.90;;;;;;5014891;28;19920;-80
2022/03/16 01:02:19;;;;;;;;;;;11.90;99.90;;;;;;5014989;28;19996;-81
2022/03/16 01:04:45;;;;;;;;;;;11.90;99.90;;;;;;5015029;28;19956;-81
2022/03/16 01:07:10;;;;;;;;;;;11.90;99.90;;;;;;5011144;28;20020;-80
2022/03/16 01:09:36;;;;;;;;;;;11.90;99.90;;;;;;4995255;28;19910;-81
2022/03/16 01:12:03;;;;;;;;;;;11.90;99.90;;;;;;4995354;28;20384;-80
2022/03/16 01:14:28;;;;;;;;;;;11.90;99.90;;;;;;4995327;28;19913;-80
2022/03/16 01:16:54;;;;;;;;;;;11.80;99.90;;;;;;5008182;28;19919;-80
2022/03/16 01:19:19;;;;;;;;;;;11.90;99.90;;;;;;5014733;28;19936;-80
2022/03/16 01:21:45;;;;;;;;;;;11.90;99.90;;;;;;5014900;28;20008;-81
2022/03/16 01:24:11;;;;;;;;;;;11.90;99.90;;;;;;5014699;28;20276;-81
2022/03/16 01:26:36;;;;;;;;;;;11.90;99.90;;;;;;5014845;28;19913;-80
2022/03/16 01:29:02;;;;;;;;;;;11.90;99.90;;;;;;5000151;28;19910;-81
2022/03/16 01:31:27;;;;;;;;;;;11.90;99.90;;;;;;4997514;28;19920;-80
2022/03/16 01:33:53;;;;;;;;;;;11.90;99.90;;;;;;5014251;28;19910;-80
2022/03/16 01:36:19;;;;;;;;;;;11.90;99.90;;;;;;5014125;28;19921;-80
2022/03/16 01:38:45;;;;;;;;;;;11.90;99.90;;;;;;5014418;28;19913;-80
2022/03/16 01:41:10;;;;;;;;;;;11.90;99.90;;;;;;5013925;28;19913;-80
2022/03/16 01:43:36;;;;;;;;;;;11.90;99.90;;;;;;5014209;28;19944;-80
2022/03/16 01:46:01;;;;;;;;;;;11.90;99.90;;;;;;5013944;28;19924;-80
2022/03/16 01:48:27;;;;;;;;;;;11.90;99.90;;;;;;5014396;28;19909;-81
2022/03/16 01:50:53;;;;;;;;;;;11.90;99.90;;;;;;5014181;28;19910;-80
2022/03/16 01:53:20;;;;;;;;;;;11.90;99.90;;;;;;5014206;28;19910;-80
2022/03/16 01:55:46;;;;;;;;;;;11.90;99.90;;;;;;5013878;28;19913;-80
2022/03/16 01:58:12;;;;;;;;;;;11.90;99.90;;;;;;5013760;28;19909;-80
2022/03/16 02:00:38;;;;;;;;;;;11.90;99.90;;;;;;5014437;28;19916;-81
2022/03/16 02:03:03;;;;;;;;;;;11.90;99.90;;;;;;5013863;28;20301;-80
2022/03/16 02:05:29;;;;;;;;;;;11.90;99.90;;;;;;5013972;28;19913;-80
2022/03/16 02:07:54;;;;;;;;;;;11.90;99.90;;;;;;5013846;28;19923;-80
2022/03/16 02:10:21;;;;;;;;;;;11.90;99.90;;;;;;5010085;28;20359;-80
2022/03/16 02:12:48;;;;;;;;;;;11.90;99.90;;;;;;4994007;28;19945;-80
2022/03/16 02:15:14;;;;;;;;;;;11.90;99.90;;;;;;5012408;28;19920;-80
2022/03/16 02:17:39;;;;;;;;;;;11.90;99.90;;;;;;5012525;28;20323;-80
2022/03/16 02:20:06;;;;;;;;;;;12.00;99.90;;;;;;5013774;28;20384;-81
2022/03/16 02:22:33;;;;;;;;;;;11.90;99.90;;;;;;5013706;28;19914;-80
2022/03/16 02:24:58;;;;;;;;;;;11.90;99.90;;;;;;5013364;28;19914;-80
2022/03/16 02:27:26;;;;;;;;;;;11.90;99.90;;;;;;5011312;28;21577;-80
2022/03/16 02:29:51;;;;;;;;;;;11.90;99.90;;;;;;5013400;28;19909;-80
2022/03/16 02:32:17;;;;;;;;;;;11.90;99.90;;;;;;5013633;28;19916;-80
2022/03/16 02:34:42;;;;;;;;;;;11.90;99.90;;;;;;5013215;28;19920;-82
2022/03/16 02:37:08;;;;;;;;;;;11.90;99.90;;;;;;5008931;28;20012;-80
2022/03/16 02:39:34;;;;;;;;;;;11.90;99.90;;;;;;5005996;28;19996;-80
2022/03/16 02:42:00;;;;;;;;;;;11.90;99.90;;;;;;5013086;28;20409;-80
2022/03/16 02:44:26;;;;;;;;;;;11.90;99.90;;;;;;5013529;28;19918;-80
2022/03/16 02:46:51;;;;;;;;;;;11.90;99.90;;;;;;5013296;28;20008;-80
2022/03/16 02:49:17;;;;;;;;;;;12.00;99.90;;;;;;5013409;28;20003;-80
2022/03/16 02:51:43;;;;;;;;;;;11.90;99.90;;;;;;5012181;28;19910;-80
2022/03/16 02:54:08;;;;;;;;;;;11.90;99.90;;;;;;4998678;28;19922;-80
2022/03/16 02:56:34;;;;;;;;;;;12.00;99.90;;;;;;5013494;28;19921;-80
2022/03/16 02:59:00;;;;;;;;;;;11.90;99.90;;;;;;5013302;28;20376;-80
2022/03/16 03:01:26;;;;;;;;;;;11.90;99.90;;;;;;5013171;28;20380;-81
2022/03/16 03:03:51;;;;;;;;;;;12.00;99.90;;;;;;5013109;28;19910;-80
2022/03/16 03:06:17;;;;;;;;;;;12.00;99.90;;;;;;4996531;28;19914;-80
2022/03/16 03:08:43;;;;;;;;;;;12.00;99.90;;;;;;5013138;28;20289;-81
2022/03/16 03:11:08;;;;;;;;;;;12.00;99.90;;;;;;5013725;28;19916;-80
2022/03/16 03:13:35;;;;;;;;;;;12.10;99.90;;;;;;5016787;28;19952;-81
2022/03/16 03:16:00;;;;;;;;;;;12.10;99.90;;;;;;5016722;28;19913;-81
2022/03/16 03:18:26;;;;;;;;;;;12.10;99.90;;;;;;4997095;28;19932;-80
2022/03/16 03:20:51;;;;;;;;;;;12.10;99.90;;;;;;4997289;28;20017;-80
2022/03/16 03:23:17;;;;;;;;;;;12.00;99.90;;;;;;4996945;28;19953;-81
2022/03/16 03:25:42;;;;;;;;;;;12.00;99.90;;;;;;4997024;28;20392;-81
2022/03/16 03:28:08;;;;;;;;;;;12.00;99.90;;;;;;4997114;28;20289;-81
2022/03/16 03:30:33;;;;;;;;;;;11.90;99.90;;;;;;4997360;28;19910;-80
2022/03/16 03:32:59;;;;;;;;;;;11.90;99.90;;;;;;4997150;28;20333;-81
2022/03/16 03:35:25;;;;;;;;;;;11.90;99.90;;;;;;4996786;28;19917;-81
2022/03/16 03:37:52;;;;;;;;;;;11.90;99.90;;;;;;5009625;28;19960;-81
2022/03/16 03:40:17;;;;;;;;;;;11.90;99.90;;;;;;5016342;28;19910;-81
2022/03/16 03:42:43;;;;;;;;;;;11.90;99.90;;;;;;5016714;28;19959;-81
2022/03/16 03:45:08;;;;;;;;;;;11.90;99.90;;;;;;5016627;28;19910;-81
2022/03/16 03:47:34;;;;;;;;;;;11.80;99.90;;;;;;5014975;28;19921;-81
2022/03/16 03:49:59;;;;;;;;;;;11.90;99.90;;;;;;5016356;28;19916;-80
2022/03/16 03:52:25;;;;;;;;;;;11.80;99.90;;;;;;5016391;28;19913;-80
2022/03/16 03:54:50;;;;;;;;;;;11.80;99.90;;;;;;5016647;28;20281;-81
2022/03/16 03:57:16;;;;;;;;;;;11.80;99.90;;;;;;5016073;28;19910;-81
2022/03/16 03:59:41;;;;;;;;;;;11.80;99.90;;;;;;5016381;28;19939;-81
2022/03/16 04:02:07;;;;;;;;;;;11.80;99.90;;;;;;5016159;28;19919;-81
2022/03/16 04:04:32;;;;;;;;;;;11.80;99.90;;;;;;5016385;28;20016;-81
2022/03/16 04:06:58;;;;;;;;;;;11.70;99.90;;;;;;5015881;28;20388;-81
2022/03/16 04:09:23;;;;;;;;;;;11.80;99.90;;;;;;5014387;28;19936;-81
2022/03/16 04:11:49;;;;;;;;;;;11.80;99.90;;;;;;5016145;28;19909;-80
2022/03/16 04:14:16;;;;;;;;;;;11.70;99.90;;;;;;5014323;28;19964;-81
2022/03/16 04:16:41;;;;;;;;;;;11.70;99.90;;;;;;5015720;28;19918;-81
2022/03/16 04:19:07;;;;;;;;;;;11.70;99.90;;;;;;5015829;28;20329;-81
2022/03/16 04:21:33;;;;;;;;;;;11.70;99.90;;;;;;5014771;28;20341;-81
2022/03/16 04:24:00;;;;;;;;;;;11.70;99.90;;;;;;5015334;28;19941;-81
2022/03/16 04:26:25;;;;;;;;;;;11.70;99.90;;;;;;5015514;28;19917;-81
2022/03/16 04:28:51;;;;;;;;;;;11.70;99.90;;;;;;5015641;28;20324;-81
2022/03/16 04:31:16;;;;;;;;;;;11.70;99.90;;;;;;5014003;28;20373;-81
2022/03/16 04:33:42;;;;;;;;;;;11.60;99.90;;;;;;5015486;28;19909;-81
2022/03/16 04:36:07;;;;;;;;;;;11.70;99.90;;;;;;5015180;28;19917;-81
2022/03/16 04:38:33;;;;;;;;;;;11.70;99.90;;;;;;5015267;28;19909;-80
2022/03/16 04:41:02;;;;;;;;;;;11.60;99.90;;;;;;5015808;28;20000;-81
2022/03/16 04:43:27;;;;;;;;;;;11.70;99.90;;;;;;5015411;28;19909;-81
2022/03/16 04:45:53;;;;;;;;;;;11.70;99.90;;;;;;5014013;28;19906;-81
2022/03/16 04:48:18;;;;;;;;;;;11.70;99.90;;;;;;5015296;28;20304;-80
2022/03/16 04:50:44;;;;;;;;;;;11.70;99.90;;;;;;5015334;28;20399;-80
2022/03/16 04:53:10;;;;;;;;;;;11.70;99.90;;;;;;5006673;28;19910;-81
2022/03/16 04:55:36;;;;;;;;;;;11.70;99.90;;;;;;4995701;28;19948;-81
2022/03/16 04:58:05;;;;;;;;;;;11.70;99.90;;;;;;5009191;28;19916;-81
2022/03/16 05:00:31;;;;;;;;;;;11.70;99.90;;;;;;5013544;28;19943;-81
2022/03/16 05:02:56;;;;;;;;;;;11.60;99.90;;;;;;5015205;28;19945;-81
2022/03/16 05:05:22;;;;;;;;;;;11.70;99.90;;;;;;5015012;28;19914;-81
2022/03/16 05:07:48;;;;;;;;;;;11.70;99.90;;;;;;5014759;28;19914;-81
2022/03/16 05:10:13;;;;;;;;;;;11.70;99.90;;;;;;5015153;28;19910;-80
2022/03/16 05:12:39;;;;;;;;;;;11.70;99.90;;;;;;5014978;28;19910;-83
2022/03/16 05:15:06;;;;;;;;;;;11.70;99.90;;;;;;5014909;28;19913;-81
2022/03/16 05:17:31;;;;;;;;;;;11.70;99.90;;;;;;5014748;28;20000;-80
2022/03/16 05:19:57;;;;;;;;;;;11.70;99.90;;;;;;5015029;28;19959;-80
2022/03/16 05:22:22;;;;;;;;;;;11.70;99.90;;;;;;5014607;28;19917;-80
2022/03/16 05:24:48;;;;;;;;;;;11.70;99.90;;;;;;5014931;28;19914;-80
2022/03/16 05:27:13;;;;;;;;;;;11.70;99.90;;;;;;5006545;28;19924;-81
2022/03/16 05:29:39;;;;;;;;;;;11.70;99.90;;;;;;5013713;28;19910;-81
2022/03/16 05:32:05;;;;;;;;;;;11.70;99.90;;;;;;5013990;28;19924;-81
2022/03/16 05:34:30;;;;;;;;;;;11.70;99.90;;;;;;5013010;28;20392;-80
2022/03/16 05:36:56;;;;;;;;;;;11.70;99.90;;;;;;5014365;28;20358;-83
2022/03/16 05:39:21;;;;;;;;;;;11.70;99.90;;;;;;5013387;28;20333;-80
2022/03/16 05:41:47;;;;;;;;;;;11.80;99.90;;;;;;5014572;28;20285;-82
2022/03/16 05:44:12;;;;;;;;;;;11.70;99.90;;;;;;5014394;28;19910;-82
2022/03/16 05:46:38;;;;;;;;;;;11.70;99.90;;;;;;5013934;28;19921;-78
2022/03/16 05:49:03;;;;;;;;;;;11.70;99.90;;;;;;5014304;28;20293;-77
2022/03/16 05:51:29;;;;;;;;;;;11.70;99.90;;;;;;5013854;28;19909;-81
2022/03/16 05:53:55;;;;;;;;;;;11.70;99.90;;;;;;5014500;28;19913;-79
2022/03/16 05:56:20;;;;;;;;;;;11.70;99.90;;;;;;5003943;28;19940;-81
2022/03/16 05:58:46;;;;;;;;;;;11.70;99.90;;;;;;5001810;28;20025;-79
2022/03/16 06:01:11;;;;;;;;;;;11.70;99.90;;;;;;5009917;28;20012;-78
2022/03/16 06:03:37;;;;;;;;;;;11.70;99.90;;;;;;5013472;28;19979;-78
2022/03/16 06:06:04;;;;;;;;;;;11.70;99.90;;;;;;5013543;28;19909;-79
2022/03/16 06:08:30;;;;;;;;;;;11.70;99.90;;;;;;5014173;28;19909;-81
2022/03/16 06:10:55;;;;;;;;;;;11.70;99.90;;;;;;5013954;28;20016;-78
2022/03/16 06:13:21;;;;;;;;;;;11.70;99.90;;;;;;5011430;28;19936;-79
2022/03/16 06:15:47;;;;;;;;;;;11.80;99.90;;;;;;4995079;28;19910;-79
2022/03/16 06:18:12;;;;;;;;;;;11.80;99.90;;;;;;5002249;28;19959;-80
2022/03/16 06:20:38;;;;;;;;;;;11.80;99.90;;;;;;5000401;28;19910;-80
2022/03/16 07:09:48;;;;;;;;;;;12.00;99.90;;;;;;5050112;22;19944;-81
2022/03/16 07:12:14;;;;;;;;;;;12.00;99.90;;;;;;5024489;28;19921;-76
2022/03/16 07:14:39;;;;;;;;;;;12.10;99.90;;;;;;5032854;28;20047;-80
2022/03/16 07:17:05;;;;;;;;;;;12.10;99.90;;;;;;5023068;28;19968;-81
2022/03/16 07:19:30;;;;;;;;;;;12.10;99.90;;;;;;5021163;28;19921;-79
2022/03/16 07:22:01;;;;;;;;;;;12.10;99.90;;;;;;5017697;28;19956;-79
2022/03/16 07:24:27;;;;;;;;;;;12.10;99.90;;;;;;5013982;28;19941;-79
2022/03/16 07:26:54;;;;;;;;;;;12.10;99.90;;;;;;5032367;28;19956;-79
2022/03/16 07:29:19;;;;;;;;;;;12.20;99.90;;;;;;5029538;28;19913;-79
2022/03/16 07:31:45;;;;;;;;;;;12.20;99.90;;;;;;5032289;28;20330;-79
2022/03/16 07:34:11;;;;;;;;;;;12.30;99.90;;;;;;5032614;28;19990;-79
2022/03/16 07:36:36;;;;;;;;;;;12.20;99.90;;;;;;5031394;28;19936;-79
2022/03/16 07:39:02;;;;;;;;;;;12.20;99.90;;;;;;5031357;28;19936;-79
2022/03/16 07:41:27;;;;;;;;;;;12.20;99.90;;;;;;5032863;28;19912;-79
2022/03/16 07:43:53;;;;;;;;;;;12.20;99.90;;;;;;5031202;28;20262;-79
2022/03/16 07:46:18;;;;;;;;;;;12.20;99.90;;;;;;5032254;28;19913;-78
2022/03/16 07:48:45;;;;;;;;;;;12.30;99.90;;;;;;5032718;28;19909;-79
2022/03/16 07:51:11;;;;;;;;;;;12.20;99.90;;;;;;5026992;28;19920;-78
2022/03/16 07:53:37;;;;;;;;;;;12.30;99.90;;;;;;5016907;28;19914;-78
2022/03/16 07:56:03;;;;;;;;;;;12.30;99.90;;;;;;5013129;28;19920;-81
2022/03/16 07:58:28;;;;;;;;;;;12.30;99.90;;;;;;5015021;28;19921;-80
2022/03/16 08:00:54;;;;;;;;;;;12.40;99.90;;;;;;5015644;28;20377;-79
2022/03/16 08:03:19;;;;;;;;;;;12.40;99.90;;;;;;5016146;28;19909;-79
2022/03/16 08:05:47;;;;;;;;;;;12.40;99.90;;;;;;5016044;28;19909;-79
2022/03/16 08:08:13;;;;;;;;;;;12.40;99.90;;;;;;5016309;28;19921;-79
2022/03/16 08:10:38;;;;;;;;;;;12.40;99.90;;;;;;5018989;28;20277;-79
2022/03/16 08:13:04;;;;;;;;;;;12.40;99.90;;;;;;5029794;28;20380;-79
2022/03/16 08:15:29;;;;;;;;;;;12.40;99.90;;;;;;5035513;28;19917;-80
2022/03/16 08:17:55;;;;;;;;;;;12.40;99.90;;;;;;5035524;28;20265;-80
2022/03/16 08:20:20;;;;;;;;;;;12.40;99.90;;;;;;5034330;28;19913;-80
2022/03/16 08:22:46;;;;;;;;;;;12.50;99.90;;;;;;5034208;28;19909;-79
2022/03/16 08:25:12;;;;;;;;;;;12.50;99.90;;;;;;5035570;28;20000;-80
2022/03/16 08:27:39;;;;;;;;;;;12.50;99.90;;;;;;5024344;28;20012;-79
2022/03/16 08:30:06;;;;;;;;;;;12.50;99.90;;;;;;5016922;28;20377;-80
2022/03/16 08:32:31;;;;;;;;;;;12.50;99.90;;;;;;5035439;28;19909;-80
2022/03/16 08:34:57;;;;;;;;;;;12.50;99.90;;;;;;5022067;28;19913;-79
2022/03/16 08:37:22;;;;;;;;;;;12.50;99.90;;;;;;5031954;28;20288;-80
2022/03/16 08:39:48;;;;;;;;;;;12.50;99.90;;;;;;5020209;28;19936;-79
2022/03/16 08:42:14;;;;;;;;;;;12.60;99.90;;;;;;5035313;28;20249;-79
2022/03/16 08:44:42;;;;;;;;;;;12.50;99.90;;;;;;5029097;28;20400;-79
2022/03/16 08:47:08;;;;;;;;;;;12.60;99.90;;;;;;5015609;28;19967;-79
2022/03/16 08:49:33;;;;;;;;;;;12.60;99.90;;;;;;5023682;28;19920;-78
2022/03/16 08:51:59;;;;;;;;;;;12.60;99.90;;;;;;5035051;28;19913;-79
2022/03/16 08:54:25;;;;;;;;;;;12.60;99.90;;;;;;5034275;28;19924;-79
2022/03/16 08:56:52;;;;;;;;;;;12.60;99.90;;;;;;5034890;28;19955;-80
2022/03/16 09:32:10;;;;;;;;;;;13.20;99.90;;;;;;5297289;22;20008;-82
2022/03/16 09:34:37;;;;;;;;;;;13.30;99.90;;;;;;5014289;28;19996;-79
2022/03/16 09:37:03;;;;;;;;;;;13.40;99.90;;;;;;5014290;28;19971;-79
2022/03/16 09:39:28;;;;;;;;;;;13.40;99.90;;;;;;5014834;28;19910;-79
2022/03/16 09:41:55;;;;;;;;;;;13.30;99.90;;;;;;5014284;28;20321;-80
2022/03/16 09:44:22;;;;;;;;;;;13.50;99.90;;;;;;5016783;28;19917;-80
2022/03/16 09:46:51;;;;;;;;;;;13.70;99.90;;;;;;5020386;28;19921;-79
2022/03/16 09:49:17;;;;;;;;;;;13.70;99.90;;;;;;5014245;28;20328;-79
2022/03/16 09:51:43;;;;;;;;;;;13.70;99.90;;;;;;5014553;28;20347;-79
2022/03/16 09:54:09;;;;;;;;;;;13.70;99.90;;;;;;5013940;28;19959;-79
2022/03/16 09:56:35;;;;;;;;;;;13.70;99.90;;;;;;5013993;28;19910;-80
2022/03/16 09:59:00;;;;;;;;;;;13.60;99.90;;;;;;5015988;28;20288;-79
2022/03/16 10:01:26;;;;;;;;;;;13.60;99.90;;;;;;5021665;28;19917;-78
2022/03/16 10:03:52;;;;;;;;;;;13.70;99.90;;;;;;5021718;28;19917;-78
2022/03/16 10:06:21;;;;;;;;;;;13.70;99.90;;;;;;5024233;28;19928;-78
2022/03/16 10:13:13;;;;;;;;;;;13.70;99.90;;;;;;5025078;28;19909;-78
2022/03/16 10:14:16;;;;;;;;;;;13.80;99.90;;;;;;5020508;28;19928;-78
2022/03/16 10:19:48;;;;;;;;;;;13.90;99.90;;;;;;5015472;28;19948;-77
2022/03/16 10:22:20;;;;;;;;;;;14.00;99.90;;;;;;5022838;28;20369;-78
2022/03/16 10:24:46;;;;;;;;;;;14.00;99.90;;;;;;5032760;28;19915;-83
2022/03/16 10:27:11;;;;;;;;;;;14.00;99.90;;;;;;5014122;28;19918;-78
2022/03/16 10:29:37;;;;;;;;;;;14.00;99.90;;;;;;5033230;28;19968;-78
2022/03/16 10:32:04;;;;;;;;;;;14.00;99.90;;;;;;5032819;28;19936;-78
2022/03/16 10:34:30;;;;;;;;;;;14.00;99.90;;;;;;5033034;28;20438;-79
2022/03/16 10:36:59;;;;;;;;;;;14.00;99.90;;;;;;5033540;28;19960;-78
2022/03/16 10:39:36;;;;;;;;;;;14.00;99.90;;;;;;5032952;28;19916;-75
2022/03/16 10:47:58;;;;;;;;;;;13.90;99.90;;;;;;5011646;28;19967;-78
2022/03/16 10:50:23;;;;;;;;;;;13.90;99.90;;;;;;5013367;28;19914;-79
2022/03/16 10:52:50;;;;;;;;;;;13.80;99.90;;;;;;5013246;28;20000;-78
2022/03/16 10:55:20;;;;;;;;;;;13.90;99.90;;;;;;5012665;28;20000;-78
2022/03/16 10:57:49;;;;;;;;;;;13.90;99.90;;;;;;5013526;28;19917;-77
2022/03/16 11:00:15;;;;;;;;;;;13.90;99.90;;;;;;5014002;28;19920;-78
2022/03/16 11:02:42;;;;;;;;;;;13.90;99.90;;;;;;5027742;28;20002;-78
2022/03/16 11:05:08;;;;;;;;;;;13.90;99.90;;;;;;5020892;28;20390;-77
2022/03/16 11:07:36;;;;;;;;;;;14.00;99.90;;;;;;5016554;28;19960;-77
2022/03/16 11:10:02;;;;;;;;;;;14.00;99.90;;;;;;5020893;28;20355;-77
2022/03/16 11:15:13;;;;;;;;;;;14.10;99.90;;;;;;5028655;28;19935;-78
2022/03/16 11:17:39;;;;;;;;;;;14.20;99.90;;;;;;5027887;28;19909;-77
2022/03/16 11:20:08;;;;;;;;;;;14.00;99.90;;;;;;4994147;28;19921;-78
2022/03/16 11:22:36;;;;;;;;;;;14.00;99.90;;;;;;5019377;28;20359;-78
2022/03/16 11:25:06;;;;;;;;;;;14.00;99.90;;;;;;5019958;28;20284;-77
2022/03/16 11:27:40;;;;;;;;;;;14.00;99.90;;;;;;5019622;28;20308;-78
2022/03/16 11:30:07;;;;;;;;;;;14.20;99.90;;;;;;5009105;28;19919;-79
2022/03/16 11:32:36;;;;;;;;;;;14.20;99.90;;;;;;5022717;28;20316;-78
2022/03/16 11:35:03;;;;;;;;;;;14.00;99.90;;;;;;5016414;28;19943;-78
2022/03/16 11:37:45;;;;;;;;;;;14.20;99.90;;;;;;5016204;28;19992;-78
2022/03/16 11:40:20;;;;;;;;;;;14.30;99.90;;;;;;5016015;28;20373;-79
2022/03/16 11:43:05;;;;;;;;;;;14.20;99.90;;;;;;5014759;28;19917;-79
2022/03/16 11:48:21;;;;;;;;;;;14.00;99.90;;;;;;5016539;28;19913;-79
2022/03/16 11:51:08;;;;;;;;;;;13.90;99.90;;;;;;5016100;28;19916;-78
2022/03/16 11:53:45;;;;;;;;;;;13.80;99.90;;;;;;5009172;28;20328;-79
2022/03/16 11:56:22;;;;;;;;;;;13.90;99.90;;;;;;5014656;28;19913;-79
2022/03/16 11:58:48;;;;;;;;;;;13.70;99.90;;;;;;5016336;28;19909;-77
2022/03/16 12:01:28;;;;;;;;;;;13.80;99.90;;;;;;5016409;28;19910;-78
2022/03/16 12:04:02;;;;;;;;;;;13.70;99.90;;;;;;5016466;28;19932;-77
2022/03/16 12:06:29;;;;;;;;;;;13.60;99.90;;;;;;5015676;28;19913;-77
2022/03/16 12:09:04;;;;;;;;;;;13.80;99.90;;;;;;5016325;28;19910;-77
2022/03/16 12:14:33;;;;;;;;;;;13.80;99.90;;;;;;5016297;28;19924;-77
2022/03/16 12:17:17;;;;;;;;;;;13.80;99.90;;;;;;5014701;28;19913;-76
2022/03/16 12:19:42;;;;;;;;;;;13.90;99.90;;;;;;5016040;28;20384;-79
2022/03/16 12:22:08;;;;;;;;;;;14.00;99.90;;;;;;5015748;28;19909;-77
2022/03/16 12:30:03;;;;;;;;;;;14.00;99.90;;;;;;5018012;28;19917;-77
2022/03/16 12:32:32;;;;;;;;;;;14.00;99.90;;;;;;5023907;28;19922;-77
2022/03/16 12:34:58;;;;;;;;;;;14.10;99.90;;;;;;5025382;28;19909;-77
2022/03/16 12:37:24;;;;;;;;;;;14.00;99.90;;;;;;5026370;28;19954;-77
2022/03/16 12:39:49;;;;;;;;;;;14.10;99.90;;;;;;5023593;28;19917;-77
2022/03/16 12:42:33;;;;;;;;;;;14.10;99.90;;;;;;5023303;28;20372;-77
2022/03/16 12:45:03;;;;;;;;;;;14.00;99.90;;;;;;5014910;28;19910;-77
2022/03/16 12:47:38;;;;;;;;;;;14.00;99.90;;;;;;5015205;28;19956;-77
2022/03/16 12:50:09;;;;;;;;;;;13.90;99.90;;;;;;5016016;28;19916;-78
2022/03/16 12:52:34;;;;;;;;;;;13.90;99.90;;;;;;5015006;28;19910;-77
2022/03/16 12:55:01;;;;;;;;;;;13.80;99.90;;;;;;5015469;28;19917;-77
2022/03/16 12:57:27;;;;;;;;;;;13.80;99.90;;;;;;5014751;28;19910;-77
2022/03/16 12:59:53;;;;;;;;;;;13.70;99.90;;;;;;5015193;28;19917;-77
2022/03/16 13:02:23;;;;;;;;;;;13.70;99.90;;;;;;5015318;28;19909;-77
2022/03/16 13:04:52;;;;;;;;;;;13.60;99.90;;;;;;5013297;28;19909;-77
2022/03/16 13:07:18;;;;;;;;;;;13.70;99.90;;;;;;5013914;28;20012;-77
2022/03/16 13:09:44;;;;;;;;;;;13.60;99.90;;;;;;5019280;28;19909;-77
2022/03/16 13:12:11;;;;;;;;;;;13.50;99.90;;;;;;5015245;28;19956;-77
2022/03/16 13:14:38;;;;;;;;;;;13.50;99.90;;;;;;5014937;28;19914;-77
2022/03/16 13:17:06;;;;;;;;;;;13.40;99.90;;;;;;5015468;28;20368;-77
2022/03/16 13:19:32;;;;;;;;;;;13.40;99.90;;;;;;5014910;28;19952;-77
2022/03/16 13:22:06;;;;;;;;;;;13.40;99.90;;;;;;5014733;28;19910;-77
2022/03/16 13:24:31;;;;;;;;;;;13.50;99.90;;;;;;5014828;28;19913;-77
2022/03/16 13:26:57;;;;;;;;;;;13.50;99.90;;;;;;5014635;28;19913;-77
2022/03/16 13:29:23;;;;;;;;;;;13.60;99.90;;;;;;5014447;28;19910;-77
2022/03/16 13:31:53;;;;;;;;;;;13.50;99.90;;;;;;5014165;28;19922;-77
2022/03/16 13:34:18;;;;;;;;;;;13.60;99.90;;;;;;5014736;28;19917;-77
2022/03/16 13:36:44;;;;;;;;;;;13.60;99.90;;;;;;5014220;28;20272;-77
2022/03/16 13:39:19;;;;;;;;;;;13.50;99.90;;;;;;5014830;28;20407;-78
2022/03/16 13:42:05;;;;;;;;;;;13.60;99.90;;;;;;5013852;28;19964;-77
2022/03/16 13:44:40;;;;;;;;;;;13.60;99.90;;;;;;5014466;28;19917;-77
2022/03/16 13:47:08;;;;;;;;;;;13.60;99.90;;;;;;5014376;28;19953;-77
2022/03/16 13:49:37;;;;;;;;;;;13.60;99.90;;;;;;5014208;28;20443;-77
2022/03/16 13:52:07;;;;;;;;;;;13.60;99.90;;;;;;5014434;28;20396;-77
2022/03/16 13:54:33;;;;;;;;;;;13.60;99.90;;;;;;5014120;28;19910;-77
2022/03/16 13:57:09;;;;;;;;;;;13.70;99.90;;;;;;5014195;28;20047;-77
2022/03/16 13:59:34;;;;;;;;;;;13.70;99.90;;;;;;5014277;28;19917;-77
2022/03/16 14:02:13;;;;;;;;;;;13.80;99.90;;;;;;5013938;28;19910;-77
2022/03/16 14:04:42;;;;;;;;;;;13.70;99.90;;;;;;5013818;28;19999;-77
2022/03/16 14:07:23;;;;;;;;;;;13.70;99.90;;;;;;5014122;28;19920;-77
2022/03/16 14:09:50;;;;;;;;;;;13.70;99.90;;;;;;5013921;28;20071;-78
2022/03/16 14:12:16;;;;;;;;;;;13.70;99.90;;;;;;5014237;28;20270;-77
2022/03/16 14:14:45;;;;;;;;;;;13.80;99.90;;;;;;5014019;28;19913;-77
2022/03/16 14:17:11;;;;;;;;;;;13.60;99.90;;;;;;5013958;28;20372;-77
2022/03/16 14:19:37;;;;;;;;;;;13.60;99.90;;;;;;5013660;28;19914;-78
2022/03/16 14:22:04;;;;;;;;;;;13.60;99.90;;;;;;5013741;28;19910;-77
2022/03/16 14:24:30;;;;;;;;;;;13.50;99.90;;;;;;5013912;28;19969;-78
2022/03/16 14:27:15;;;;;;;;;;;13.50;99.90;;;;;;5013277;28;19925;-77
2022/03/16 14:29:45;;;;;;;;;;;13.40;99.90;;;;;;5013972;28;19914;-77
2022/03/16 14:32:11;;;;;;;;;;;13.40;99.90;;;;;;5013603;28;20520;-78
2022/03/16 14:34:36;;;;;;;;;;;13.50;99.90;;;;;;5013495;28;19949;-78
2022/03/16 14:37:02;;;;;;;;;;;13.40;99.90;;;;;;5013565;28;20007;-77
2022/03/16 14:39:28;;;;;;;;;;;13.30;99.90;;;;;;5013854;28;19910;-77
2022/03/16 14:41:54;;;;;;;;;;;13.30;99.90;;;;;;5013724;28;20368;-77
2022/03/16 14:44:20;;;;;;;;;;;13.20;99.90;;;;;;5013384;28;19933;-77
2022/03/16 14:46:45;;;;;;;;;;;13.30;99.90;;;;;;5012637;28;19917;-78
2022/03/16 14:49:11;;;;;;;;;;;13.20;99.90;;;;;;5012119;28;20327;-77
2022/03/16 14:51:36;;;;;;;;;;;13.20;99.90;;;;;;5013756;28;19910;-77
2022/03/16 14:54:03;;;;;;;;;;;13.20;99.90;;;;;;5013616;28;19963;-77
2022/03/16 14:56:28;;;;;;;;;;;13.10;99.90;;;;;;5014258;28;19910;-79
2022/03/16 14:58:54;;;;;;;;;;;13.20;99.90;;;;;;5012568;28;19909;-78
2022/03/16 15:01:20;;;;;;;;;;;13.10;99.90;;;;;;5026025;28;19909;-78
2022/03/16 15:03:45;;;;;;;;;;;13.10;99.90;;;;;;5033010;28;19996;-80
2022/03/16 15:06:11;;;;;;;;;;;13.20;99.90;;;;;;5033667;28;20310;-80
2022/03/16 15:08:36;;;;;;;;;;;13.10;99.90;;;;;;5022112;28;19909;-80
2022/03/16 15:11:02;;;;;;;;;;;13.10;99.90;;;;;;5019780;28;19959;-81
2022/03/16 15:13:27;;;;;;;;;;;13.10;99.90;;;;;;5037153;28;19917;-81
2022/03/16 15:15:53;;;;;;;;;;;13.10;99.90;;;;;;5027694;28;20004;-79
2022/03/16 15:18:21;;;;;;;;;;;13.10;99.90;;;;;;5029008;28;19936;-79
2022/03/16 15:20:46;;;;;;;;;;;13.10;99.90;;;;;;5029945;28;19963;-79
2022/03/16 15:23:12;;;;;;;;;;;13.10;99.90;;;;;;5023268;28;19921;-79
2022/03/16 15:25:38;;;;;;;;;;;13.10;99.90;;;;;;5022120;28;20519;-78
2022/03/16 15:28:03;;;;;;;;;;;13.20;99.90;;;;;;5025362;28;20332;-79
2022/03/16 15:30:29;;;;;;;;;;;13.10;99.90;;;;;;5022399;28;19997;-79
2022/03/16 15:32:56;;;;;;;;;;;13.10;99.90;;;;;;5022892;28;19920;-79
2022/03/16 15:35:22;;;;;;;;;;;13.10;99.90;;;;;;5024499;28;19913;-78
2022/03/16 15:37:47;;;;;;;;;;;13.20;99.90;;;;;;5032505;28;19949;-79
2022/03/16 15:42:57;;;;;;;;;;;13.20;99.90;;;;;;5029803;28;20431;-78
2022/03/16 15:45:22;;;;;;;;;;;13.20;99.90;;;;;;5016416;28;19949;-78
2022/03/16 15:47:48;;;;;;;;;;;13.20;99.90;;;;;;5016403;28;20403;-78
2022/03/16 15:50:16;;;;;;;;;;;13.20;99.90;;;;;;5016546;28;20328;-78
2022/03/16 15:52:41;;;;;;;;;;;13.30;99.90;;;;;;5016520;28;19970;-78
2022/03/16 15:55:09;;;;;;;;;;;13.30;99.90;;;;;;5016850;28;19913;-80
2022/03/16 15:57:34;;;;;;;;;;;13.20;99.90;;;;;;5016539;28;20460;-80
2022/03/16 16:00:00;;;;;;;;;;;13.30;99.90;;;;;;5016229;28;20004;-79
2022/03/16 16:02:26;;;;;;;;;;;13.30;99.90;;;;;;5016027;28;20549;-79